09J weather

Jekyll Island Airport
Jekyll Island, Georgia, United States

Public forecast

Using degrees Fahrenheit for public forecast. Weather courtesy of forecast.io.

METAR (pilot weather report)

Closest report is St Simons Island Airport, 5.0 nm (9.3 km) NNE. Retrieved 2019/08/24 20:53 UTC (47 minutes ago):

KSSI 242053Z AUTO 08007KT 10SM CLR 30/24 A2996 RMK AO2 LTG DSNT W SLP146 T03000239 56009

TAF (pilot weather forecast)

Closest forecast is St Simons Island Airport, 5.0 nm (9.3 km) NNE. Retrieved 2019/08/24 18:24 UTC (3 hours ago):

TAF KSSI 241722Z 2418/2518 09010KT P6SM SCT040 SCT250 FM250200 09006KT P6SM FEW030 BKN250 FM251000 04004KT P6SM VCSH SCT015 BKN030 BKN100 FM251300 04010KT P6SM VCSH SCT007 OVC020